Time;durP1;ratioP1;P1;durP2;ratioP2;P2;SDS_P1;SDS_P2;PMS_P1;PMS_P2;Temp;Humidity;BMP_temperature;BMP_pressure;BME280_temperature;BME280_humidity;BME280_pressure;Samples;Min_cycle;Max_cycle;Signal;HPM_P1;HPM_P2
2021/11/27 00:01:57;;;;;;;;;;;;;;;1.68;77.84;98214.73;108218;1285;21995;-76
2021/11/27 00:04:26;;;;;;;;;;;;;;;1.69;77.95;98216.19;108418;1285;21960;-76
2021/11/27 00:06:55;;;;;;;;;;;;;;;1.71;78.08;98217.16;108069;1288;23582;-77
2021/11/27 00:09:27;;;;;;;;;;;;;;;1.72;78.04;98209.90;107912;1292;22858;-77
2021/11/27 00:11:59;;;;;;;;;;;;;;;1.72;77.96;98209.70;107704;1294;23738;-77
2021/11/27 00:14:31;;;;;;;;;;;;;;;1.70;77.86;98212.39;107432;1294;23086;-76
2021/11/27 00:17:01;;;;;;;;;;;;;;;1.69;77.90;98213.52;107650;1294;22048;-77
2021/11/27 00:19:31;;;;;;;;;;;;;;;1.70;78.06;98212.41;107578;1294;21986;-77
2021/11/27 00:22:00;;;;;;;;;;;;;;;1.70;77.86;98213.96;107594;1294;23112;-76
2021/11/27 00:24:30;;;;;;;;;;;;;;;1.69;77.88;98218.10;107615;1289;21982;-76
2021/11/27 00:26:59;;;;;;;;;;;;;;;1.66;77.83;98215.36;108158;1282;22746;-76
2021/11/27 00:29:28;;;;;;;;;;;;;;;1.66;77.97;98214.19;108494;1281;22986;-78
2021/11/27 00:31:57;;;;;;;;;;;;;;;1.66;77.99;98211.07;108503;1276;21947;-75
2021/11/27 00:34:27;;;;;;;;;;;;;;;1.65;78.00;98211.14;108735;1275;22040;-76
2021/11/27 00:36:56;;;;;;;;;;;;;;;1.63;77.92;98207.51;108776;1275;21985;-75
2021/11/27 00:39:25;;;;;;;;;;;;;;;1.61;77.81;98206.36;108824;1275;21971;-76
2021/11/27 00:41:54;;;;;;;;;;;;;;;1.59;77.93;98203.27;108739;1275;21966;-77
2021/11/27 00:44:24;;;;;;;;;;;;;;;1.57;77.86;98200.02;108783;1275;23158;-77
2021/11/27 00:46:54;;;;;;;;;;;;;;;1.56;77.89;98202.05;108717;1275;22062;-77
2021/11/27 00:49:24;;;;;;;;;;;;;;;1.55;77.88;98205.81;108802;1275;21966;-76
2021/11/27 00:51:53;;;;;;;;;;;;;;;1.56;77.97;98203.86;108383;1283;22076;-77
2021/11/27 00:54:23;;;;;;;;;;;;;;;1.56;78.00;98202.26;108405;1283;22732;-77
2021/11/27 00:56:52;;;;;;;;;;;;;;;1.54;78.02;98200.73;108021;1287;22255;-77
2021/11/27 00:59:21;;;;;;;;;;;;;;;1.53;78.08;98200.34;107655;1292;22006;-77
2021/11/27 01:01:50;;;;;;;;;;;;;;;1.53;78.13;98198.58;107746;1292;22172;-76
2021/11/27 01:04:23;;;;;;;;;;;;;;;1.52;78.09;98197.26;107793;1292;23093;-77
2021/11/27 01:06:52;;;;;;;;;;;;;;;1.51;78.09;98194.79;107642;1292;22009;-77
2021/11/27 01:09:21;;;;;;;;;;;;;;;1.50;78.12;98193.88;107724;1285;23768;-77
2021/11/27 01:11:53;;;;;;;;;;;;;;;1.50;78.12;98195.24;108056;1291;21982;-77
2021/11/27 01:14:28;;;;;;;;;;;;;;;1.49;78.06;98197.65;108038;1287;23202;-77
2021/11/27 01:17:03;;;;;;;;;;;;;;;1.47;78.12;98190.73;108417;1281;22635;-77
2021/11/27 01:19:41;;;;;;;;;;;;;;;1.47;78.14;98189.36;108636;1281;23147;-77
2021/11/27 01:22:13;;;;;;;;;;;;;;;1.46;78.20;98187.85;108086;1287;21976;-77
2021/11/27 01:24:43;;;;;;;;;;;;;;;1.46;78.09;98187.56;108016;1291;23589;-77
2021/11/27 01:27:13;;;;;;;;;;;;;;;1.45;78.18;98184.38;107767;1291;22008;-77
2021/11/27 01:29:44;;;;;;;;;;;;;;;1.44;78.28;98186.70;107873;1288;21980;-77
2021/11/27 01:32:15;;;;;;;;;;;;;;;1.44;78.29;98183.79;108109;1288;22752;-77
2021/11/27 01:34:47;;;;;;;;;;;;;;;1.45;78.47;98185.22;108086;1288;21981;-77
2021/11/27 01:37:17;;;;;;;;;;;;;;;1.45;78.46;98187.83;108116;1288;23682;-77
2021/11/27 01:39:46;;;;;;;;;;;;;;;1.44;78.33;98184.97;107642;1288;22779;-77
2021/11/27 01:42:16;;;;;;;;;;;;;;;1.43;78.37;98183.00;108097;1282;21933;-77
2021/11/27 01:44:48;;;;;;;;;;;;;;;1.41;78.40;98181.26;108421;1284;22009;-76
2021/11/27 01:47:24;;;;;;;;;;;;;;;1.39;78.43;98180.39;108421;1283;22492;-80
2021/11/27 01:49:53;;;;;;;;;;;;;;;1.37;78.38;98177.32;108106;1288;23585;-77
2021/11/27 01:52:23;;;;;;;;;;;;;;;1.36;78.47;98175.01;108012;1289;21965;-77
2021/11/27 01:54:52;;;;;;;;;;;;;;;1.37;78.63;98179.20;108065;1289;22002;-77
2021/11/27 01:57:22;;;;;;;;;;;;;;;1.38;78.69;98182.23;107783;1286;21986;-77
2021/11/27 01:59:51;;;;;;;;;;;;;;;1.37;78.56;98179.27;108074;1288;22056;-77
2021/11/27 02:02:21;;;;;;;;;;;;;;;1.35;78.62;98175.46;108085;1288;21971;-76
2021/11/27 02:05:00;;;;;;;;;;;;;;;1.36;78.67;98171.36;108138;1288;22730;-74
2021/11/27 02:07:37;;;;;;;;;;;;;;;1.35;78.75;98165.54;108218;1286;22080;-76
2021/11/27 02:10:10;;;;;;;;;;;;;;;1.35;78.71;98169.55;108246;1286;22002;-76
2021/11/27 02:12:42;;;;;;;;;;;;;;;1.34;78.69;98173.33;108160;1286;22018;-76
2021/11/27 02:15:14;;;;;;;;;;;;;;;1.36;78.70;98176.64;108470;1275;22032;-76
2021/11/27 02:17:47;;;;;;;;;;;;;;;1.37;78.80;98177.22;108822;1275;23816;-76
2021/11/27 02:20:20;;;;;;;;;;;;;;;1.37;78.69;98177.74;108629;1278;21962;-75
2021/11/27 02:22:49;;;;;;;;;;;;;;;1.36;78.76;98176.92;108806;1275;22714;-75
2021/11/27 02:25:21;;;;;;;;;;;;;;;1.34;78.70;98171.63;108429;1281;22025;-75
2021/11/27 02:27:52;;;;;;;;;;;;;;;1.32;78.82;98170.74;108554;1281;22758;-78
2021/11/27 02:30:22;;;;;;;;;;;;;;;1.31;78.85;98171.02;108218;1287;23749;-75
2021/11/27 02:32:52;;;;;;;;;;;;;;;1.30;78.82;98171.66;108170;1288;21997;-75
2021/11/27 02:35:21;;;;;;;;;;;;;;;1.31;79.03;98173.68;108201;1287;22249;-76
2021/11/27 02:37:52;;;;;;;;;;;;;;;1.33;79.08;98175.50;107833;1292;22974;-77
2021/11/27 02:40:22;;;;;;;;;;;;;;;1.34;79.09;98171.96;107764;1291;22005;-77
2021/11/27 02:42:51;;;;;;;;;;;;;;;1.35;79.08;98176.73;107750;1291;22750;-77
2021/11/27 02:45:20;;;;;;;;;;;;;;;1.35;78.92;98176.02;108015;1291;21955;-76
2021/11/27 02:47:50;;;;;;;;;;;;;;;1.33;78.97;98176.19;107928;1283;22002;-77
2021/11/27 02:50:19;;;;;;;;;;;;;;;1.31;78.90;98175.05;108405;1284;23616;-76
2021/11/27 02:52:49;;;;;;;;;;;;;;;1.32;79.12;98180.51;108542;1280;22718;-77
2021/11/27 02:55:20;;;;;;;;;;;;;;;1.32;79.00;98182.26;108504;1276;23032;-77
2021/11/27 02:57:49;;;;;;;;;;;;;;;1.33;79.13;98181.90;108581;1281;22029;-77
2021/11/27 03:00:21;;;;;;;;;;;;;;;1.35;79.12;98177.42;108508;1282;22038;-77
2021/11/27 03:02:50;;;;;;;;;;;;;;;1.37;79.23;98176.83;108547;1281;25272;-77
2021/11/27 03:05:20;;;;;;;;;;;;;;;1.41;79.30;98181.41;108429;1284;21974;-77
2021/11/27 03:07:50;;;;;;;;;;;;;;;1.45;79.13;98187.34;108330;1285;21994;-77
2021/11/27 03:10:20;;;;;;;;;;;;;;;1.45;79.01;98181.62;108379;1285;21998;-77
2021/11/27 03:12:50;;;;;;;;;;;;;;;1.47;79.11;98180.48;108402;1285;22510;-77
2021/11/27 03:15:19;;;;;;;;;;;;;;;1.49;79.15;98176.95;108368;1282;21962;-75
2021/11/27 03:17:49;;;;;;;;;;;;;;;1.52;79.22;98181.27;108430;1282;23589;-78
2021/11/27 03:20:19;;;;;;;;;;;;;;;1.54;79.17;98184.80;108476;1281;22041;-77
2021/11/27 03:22:49;;;;;;;;;;;;;;;1.57;79.25;98186.16;108534;1281;21959;-76
2021/11/27 03:25:18;;;;;;;;;;;;;;;1.60;79.21;98188.11;108511;1281;23066;-76
2021/11/27 03:27:48;;;;;;;;;;;;;;;1.61;79.01;98190.80;108520;1281;23650;-76
2021/11/27 03:30:19;;;;;;;;;;;;;;;1.59;79.02;98191.13;108441;1280;22985;-76
2021/11/27 03:32:56;;;;;;;;;;;;;;;1.60;79.02;98192.73;108490;1281;23743;-75
2021/11/27 03:35:26;;;;;;;;;;;;;;;1.61;78.95;98193.02;108257;1286;23576;-76
2021/11/27 03:37:57;;;;;;;;;;;;;;;1.58;78.94;98191.40;107851;1291;22077;-76
2021/11/27 03:40:31;;;;;;;;;;;;;;;1.57;78.90;98193.69;108046;1291;23602;-76
2021/11/27 03:43:01;;;;;;;;;;;;;;;1.57;79.01;98198.34;107991;1291;23351;-75
2021/11/27 03:45:31;;;;;;;;;;;;;;;1.58;79.05;98196.08;108020;1290;22358;-76
2021/11/27 03:48:16;;;;;;;;;;;;;;;1.59;79.02;98195.61;107948;1285;22097;-76
2021/11/27 03:51:15;;;;;;;;;;;;;;;1.59;78.91;98193.80;108438;1285;22295;-76
2021/11/27 03:53:45;;;;;;;;;;;;;;;1.59;79.06;98188.92;107854;1291;22202;-77
2021/11/27 03:56:21;;;;;;;;;;;;;;;1.59;79.10;98192.23;108131;1288;23732;-76
2021/11/27 03:58:57;;;;;;;;;;;;;;;1.61;79.32;98188.89;108206;1288;23693;-77
2021/11/27 04:01:36;;;;;;;;;;;;;;;1.64;79.31;98179.82;108341;1282;21967;-75
2021/11/27 04:04:07;;;;;;;;;;;;;;;1.68;79.37;98182.74;108433;1284;23672;-76
2021/11/27 04:06:37;;;;;;;;;;;;;;;1.69;79.19;98179.88;108444;1283;22002;-76
2021/11/27 04:09:10;;;;;;;;;;;;;;;1.67;79.03;98188.39;108371;1285;22023;-76
2021/11/27 04:11:41;;;;;;;;;;;;;;;1.66;79.01;98192.70;108535;1277;22001;-76
2021/11/27 04:14:18;;;;;;;;;;;;;;;1.64;78.90;98191.99;108695;1275;23582;-76
2021/11/27 04:16:52;;;;;;;;;;;;;;;1.67;79.08;98191.16;108865;1275;22896;-76
2021/11/27 04:19:29;;;;;;;;;;;;;;;1.68;79.04;98189.48;108796;1275;23045;-77
2021/11/27 04:22:03;;;;;;;;;;;;;;;1.68;78.93;98184.08;108858;1275;21966;-79
2021/11/27 04:24:34;;;;;;;;;;;;;;;1.70;79.05;98185.13;108723;1278;22802;-76
2021/11/27 04:27:04;;;;;;;;;;;;;;;1.72;79.13;98196.02;108491;1281;22055;-77
2021/11/27 04:29:33;;;;;;;;;;;;;;;1.73;79.01;98203.85;108509;1280;21994;-77
2021/11/27 04:32:03;;;;;;;;;;;;;;;1.73;78.92;98204.63;108613;1281;22113;-77
2021/11/27 04:34:32;;;;;;;;;;;;;;;1.70;78.96;98206.83;108521;1281;22984;-76
2021/11/27 04:37:02;;;;;;;;;;;;;;;1.70;79.06;98210.67;108688;1278;23731;-76
2021/11/27 04:39:34;;;;;;;;;;;;;;;1.71;79.23;98212.81;108469;1279;21992;-76
2021/11/27 04:42:03;;;;;;;;;;;;;;;1.74;79.33;98210.94;108444;1286;21981;-76
2021/11/27 04:44:34;;;;;;;;;;;;;;;1.75;79.22;98212.05;108221;1285;23507;-77
2021/11/27 04:47:04;;;;;;;;;;;;;;;1.74;79.26;98216.05;108114;1288;22832;-76
2021/11/27 04:49:34;;;;;;;;;;;;;;;1.76;79.39;98217.58;108197;1288;21989;-76
2021/11/27 04:52:04;;;;;;;;;;;;;;;1.80;79.49;98215.98;108045;1288;21973;-75
2021/11/27 04:54:35;;;;;;;;;;;;;;;1.81;79.30;98215.50;108086;1288;22721;-76
2021/11/27 04:57:04;;;;;;;;;;;;;;;1.81;79.20;98212.63;108051;1288;23599;-76
2021/11/27 04:59:35;;;;;;;;;;;;;;;1.79;79.02;98211.20;107630;1287;24671;-77
2021/11/27 05:02:20;;;;;;;;;;;;;;;1.77;79.02;98211.46;108427;1290;22482;-77
2021/11/27 05:04:53;;;;;;;;;;;;;;;1.76;79.08;98211.59;108005;1288;22036;-77
2021/11/27 05:07:44;;;;;;;;;;;;;;;1.74;78.97;98209.55;108513;1280;22387;-77
2021/11/27 05:10:13;;;;;;;;;;;;;;;1.72;78.96;98212.06;108496;1281;22006;-77
2021/11/27 05:12:43;;;;;;;;;;;;;;;1.69;78.94;98219.60;108313;1281;21966;-76
2021/11/27 05:15:13;;;;;;;;;;;;;;;1.70;79.06;98225.54;108415;1282;23744;-76
2021/11/27 05:17:44;;;;;;;;;;;;;;;1.72;79.16;98233.01;108874;1275;22039;-76
2021/11/27 05:20:24;;;;;;;;;;;;;;;1.74;79.29;98228.02;108732;1277;22013;-76
2021/11/27 05:23:02;;;;;;;;;;;;;;;1.75;79.16;98227.64;108715;1281;22014;-76
2021/11/27 05:25:35;;;;;;;;;;;;;;;1.75;79.09;98230.27;108231;1284;22750;-76
2021/11/27 05:28:27;;;;;;;;;;;;;;;1.76;79.15;98236.05;107925;1288;22038;-76
2021/11/27 05:31:27;;;;;;;;;;;;;;;1.76;79.17;98241.34;107775;1287;22772;-76
2021/11/27 05:36:49;;;;;;;;;;;;;;;1.77;79.09;98245.14;107851;1291;22299;-76
2021/11/27 05:39:21;;;;;;;;;;;;;;;1.75;79.01;98243.55;108098;1288;22051;-76
2021/11/27 05:41:57;;;;;;;;;;;;;;;1.77;79.22;98248.92;108256;1288;23785;-76
2021/11/27 05:44:40;;;;;;;;;;;;;;;1.81;79.26;98248.20;108550;1281;23088;-75
2021/11/27 05:47:26;;;;;;;;;;;;;;;1.83;79.23;98242.93;109068;1274;21992;-76
2021/11/27 05:50:25;;;;;;;;;;;;;;;1.88;79.42;98237.46;108847;1275;22111;-76
2021/11/27 05:52:59;;;;;;;;;;;;;;;1.91;79.24;98232.91;108911;1275;21966;-75
2021/11/27 05:55:35;;;;;;;;;;;;;;;1.93;79.21;98236.34;108934;1275;21957;-76
2021/11/27 05:58:04;;;;;;;;;;;;;;;1.94;79.16;98240.71;108926;1275;22008;-76
2021/11/27 06:00:34;;;;;;;;;;;;;;;1.96;79.19;98247.21;109046;1276;21991;-76
2021/11/27 06:03:04;;;;;;;;;;;;;;;1.99;79.25;98247.47;109021;1275;23154;-76
2021/11/27 06:05:37;;;;;;;;;;;;;;;1.97;78.92;98246.63;108883;1276;22071;-76
2021/11/27 06:08:08;;;;;;;;;;;;;;;1.95;79.00;98249.98;108586;1282;22466;-76
2021/11/27 06:10:38;;;;;;;;;;;;;;;1.91;78.89;98255.30;107881;1290;22047;-76
2021/11/27 06:13:07;;;;;;;;;;;;;;;1.86;78.80;98259.40;107527;1294;23647;-76
2021/11/27 06:15:36;;;;;;;;;;;;;;;1.80;78.74;98261.13;107608;1295;22005;-76
2021/11/27 06:18:05;;;;;;;;;;;;;;;1.72;78.56;98260.96;107669;1293;22020;-76
2021/11/27 06:20:38;;;;;;;;;;;;;;;1.71;78.96;98261.79;107787;1294;23714;-76
2021/11/27 06:23:14;;;;;;;;;;;;;;;1.72;79.05;98264.05;107636;1291;24154;-75
2021/11/27 06:25:57;;;;;;;;;;;;;;;1.72;79.11;98267.69;108011;1290;22009;-76
2021/11/27 06:29:07;;;;;;;;;;;;;;;1.66;78.78;98282.01;108075;1284;21984;-75
2021/11/27 06:31:45;;;;;;;;;;;;;;;1.61;78.90;98285.29;107949;1284;407732;-75
2021/11/27 06:34:17;;;;;;;;;;;;;;;1.61;79.25;98282.73;108156;1286;21977;-75
2021/11/27 06:36:49;;;;;;;;;;;;;;;1.62;79.28;98283.27;108346;1286;21979;-77
2021/11/27 06:39:23;;;;;;;;;;;;;;;1.63;79.27;98289.75;108274;1286;22036;-75
2021/11/27 06:42:09;;;;;;;;;;;;;;;1.60;79.04;98291.88;108210;1286;23725;-75
2021/11/27 06:45:11;;;;;;;;;;;;;;;1.51;78.97;98296.56;108318;1287;21977;-75
2021/11/27 06:48:03;;;;;;;;;;;;;;;1.50;79.19;98297.21;108409;1286;21982;-75
2021/11/27 06:50:37;;;;;;;;;;;;;;;1.49;79.09;98304.43;108461;1281;22826;-75
2021/11/27 06:53:09;;;;;;;;;;;;;;;1.46;79.11;98308.94;108986;1275;23766;-75
2021/11/27 06:55:41;;;;;;;;;;;;;;;1.45;79.19;98311.67;108863;1273;23663;-75
2021/11/27 06:58:10;;;;;;;;;;;;;;;1.45;79.44;98305.92;108789;1276;22016;-75
2021/11/27 07:00:42;;;;;;;;;;;;;;;1.49;79.66;98317.27;108705;1275;23837;-75
2021/11/27 07:03:32;;;;;;;;;;;;;;;1.55;79.82;98326.04;108342;1282;23563;-75
2021/11/27 07:06:20;;;;;;;;;;;;;;;1.53;79.49;98331.79;108595;1276;22032;-76
2021/11/27 07:08:49;;;;;;;;;;;;;;;1.48;79.40;98336.30;108495;1281;22771;-76
2021/11/27 07:11:37;;;;;;;;;;;;;;;1.43;79.33;98340.16;108451;1282;22029;-75
2021/11/27 07:14:06;;;;;;;;;;;;;;;1.41;79.54;98345.69;108438;1280;23029;-77
2021/11/27 07:16:35;;;;;;;;;;;;;;;1.41;79.54;98353.14;108571;1281;22262;-76
2021/11/27 07:19:07;;;;;;;;;;;;;;;1.43;79.81;98355.05;108069;1286;24524;-76
2021/11/27 07:21:36;;;;;;;;;;;;;;;1.44;79.81;98361.86;107752;1288;22022;-76
2021/11/27 07:24:06;;;;;;;;;;;;;;;1.48;79.96;98369.64;108018;1289;23784;-76
2021/11/27 07:26:35;;;;;;;;;;;;;;;1.52;80.05;98368.15;108043;1287;21983;-77
2021/11/27 07:29:10;;;;;;;;;;;;;;;1.54;79.97;98367.96;108137;1286;23599;-76
2021/11/27 07:31:47;;;;;;;;;;;;;;;1.53;79.87;98371.21;108186;1284;23602;-76
2021/11/27 07:34:16;;;;;;;;;;;;;;;1.55;79.95;98372.07;108048;1288;22155;-76
2021/11/27 07:36:46;;;;;;;;;;;;;;;1.55;79.77;98369.08;108102;1283;23567;-75
2021/11/27 07:39:15;;;;;;;;;;;;;;;1.52;79.70;98374.91;108586;1278;21974;-76
2021/11/27 07:41:44;;;;;;;;;;;;;;;1.54;79.99;98373.48;109002;1275;21953;-76
2021/11/27 07:44:19;;;;;;;;;;;;;;;1.59;80.11;98377.53;108856;1275;23746;-78
2021/11/27 07:47:07;;;;;;;;;;;;;;;1.62;79.96;98383.92;108905;1275;23676;-77
2021/11/27 07:49:55;;;;;;;;;;;;;;;1.61;79.61;98392.41;108934;1275;21971;-77
2021/11/27 07:52:43;;;;;;;;;;;;;;;1.56;79.51;98400.40;108929;1275;22942;-82
2021/11/27 07:55:28;;;;;;;;;;;;;;;1.44;79.21;98404.52;108838;1275;24284;-77
2021/11/27 07:57:58;;;;;;;;;;;;;;;1.40;79.41;98409.79;108872;1275;21966;-75
2021/11/27 08:00:27;;;;;;;;;;;;;;;1.37;79.51;98412.86;108820;1278;21976;-75
2021/11/27 08:02:58;;;;;;;;;;;;;;;1.40;79.76;98418.13;108884;1274;24284;-75
2021/11/27 08:05:28;;;;;;;;;;;;;;;1.44;79.91;98417.86;108844;1275;24281;-75
2021/11/27 08:07:57;;;;;;;;;;;;;;;1.48;79.93;98415.43;108866;1275;23765;-75
2021/11/27 08:10:26;;;;;;;;;;;;;;;1.50;79.86;98417.79;108921;1275;23602;-75
2021/11/27 08:12:55;;;;;;;;;;;;;;;1.54;80.06;98418.80;108833;1277;21942;-75
2021/11/27 08:15:25;;;;;;;;;;;;;;;1.59;80.02;98419.70;109070;1275;21979;-75
2021/11/27 08:17:54;;;;;;;;;;;;;;;1.66;80.30;98419.33;108899;1275;23656;-74
2021/11/27 08:20:23;;;;;;;;;;;;;;;1.69;80.17;98421.55;108895;1275;22359;-74
2021/11/27 08:22:52;;;;;;;;;;;;;;;1.70;80.09;98420.45;108777;1275;23016;-75
2021/11/27 08:25:22;;;;;;;;;;;;;;;1.72;80.23;98415.41;108794;1277;23020;-74
2021/11/27 08:27:51;;;;;;;;;;;;;;;1.78;80.48;98421.29;108741;1275;23668;-75
2021/11/27 08:30:20;;;;;;;;;;;;;;;1.87;80.62;98425.80;108547;1281;21999;-76
2021/11/27 08:32:49;;;;;;;;;;;;;;;1.92;80.29;98429.64;108563;1277;22026;-75
2021/11/27 08:35:18;;;;;;;;;;;;;;;1.95;80.27;98431.39;108463;1281;23563;-75
2021/11/27 08:37:48;;;;;;;;;;;;;;;2.01;80.48;98434.23;108444;1281;22315;-75
2021/11/27 08:40:17;;;;;;;;;;;;;;;2.09;80.46;98429.59;108428;1280;22127;-77
2021/11/27 08:42:49;;;;;;;;;;;;;;;2.16;80.45;98427.58;108464;1281;21973;-76
2021/11/27 08:45:18;;;;;;;;;;;;;;;2.13;79.84;98421.13;108558;1281;23631;-75
2021/11/27 08:47:47;;;;;;;;;;;;;;;2.10;79.72;98418.48;108070;1286;23589;-76
2021/11/27 08:50:17;;;;;;;;;;;;;;;2.10;79.76;98422.20;108266;1286;23774;-76
2021/11/27 08:52:46;;;;;;;;;;;;;;;2.11;79.62;98424.67;108216;1285;22425;-76
2021/11/27 08:55:16;;;;;;;;;;;;;;;2.11;79.47;98427.64;107886;1288;21982;-76
2021/11/27 08:57:44;;;;;;;;;;;;;;;2.11;79.40;98433.95;107997;1289;22954;-76
2021/11/27 09:00:21;;;;;;;;;;;;;;;2.10;79.22;98436.54;107575;1291;22042;-80
2021/11/27 09:02:56;;;;;;;;;;;;;;;2.13;79.44;98437.80;107611;1291;23765;-77
2021/11/27 09:05:30;;;;;;;;;;;;;;;2.19;79.33;98437.17;107244;1292;23050;-75
2021/11/27 09:07:59;;;;;;;;;;;;;;;2.22;79.30;98435.91;107668;1292;23700;-75
2021/11/27 09:10:28;;;;;;;;;;;;;;;2.22;79.08;98430.44;107535;1294;22909;-75
2021/11/27 09:12:58;;;;;;;;;;;;;;;2.22;78.95;98432.02;107711;1287;24179;-75
2021/11/27 09:15:28;;;;;;;;;;;;;;;2.18;78.64;98433.52;108256;1285;21980;-75
2021/11/27 09:17:57;;;;;;;;;;;;;;;2.17;78.80;98434.85;108318;1282;21988;-75
2021/11/27 09:20:27;;;;;;;;;;;;;;;2.21;79.14;98436.50;108482;1280;25104;-75
2021/11/27 09:22:56;;;;;;;;;;;;;;;2.23;79.00;98438.36;108518;1275;23036;-75
2021/11/27 09:25:28;;;;;;;;;;;;;;;2.21;78.69;98443.13;109027;1274;23016;-75
2021/11/27 09:27:58;;;;;;;;;;;;;;;2.15;78.38;98445.97;109057;1274;21954;-75
2021/11/27 09:30:29;;;;;;;;;;;;;;;2.12;78.53;98442.26;108518;1281;22001;-75
2021/11/27 09:32:58;;;;;;;;;;;;;;;2.19;79.01;98439.79;108192;1286;21974;-75
2021/11/27 09:35:27;;;;;;;;;;;;;;;2.28;79.07;98441.98;108209;1287;23842;-74
2021/11/27 09:37:57;;;;;;;;;;;;;;;2.27;78.51;98436.02;108086;1286;24183;-75
2021/11/27 09:40:27;;;;;;;;;;;;;;;2.17;78.08;98433.89;108137;1287;21982;-75
2021/11/27 09:42:56;;;;;;;;;;;;;;;2.09;78.22;98428.31;107962;1292;22021;-75
2021/11/27 09:45:27;;;;;;;;;;;;;;;2.08;78.48;98429.69;107257;1298;21991;-75
2021/11/27 09:47:56;;;;;;;;;;;;;;;2.06;78.28;98434.38;107428;1291;21985;-75
2021/11/27 09:50:25;;;;;;;;;;;;;;;2.02;78.46;98436.70;107856;1284;24323;-75
2021/11/27 09:52:56;;;;;;;;;;;;;;;2.09;79.02;98430.79;108285;1284;21973;-75
2021/11/27 09:55:25;;;;;;;;;;;;;;;2.11;78.70;98427.73;108094;1284;22394;-75
2021/11/27 09:57:54;;;;;;;;;;;;;;;2.10;78.55;98431.33;108257;1283;23567;-75
2021/11/27 10:00:23;;;;;;;;;;;;;;;2.15;78.80;98430.34;108323;1284;23570;-75
2021/11/27 10:02:58;;;;;;;;;;;;;;;2.24;79.07;98429.52;108441;1279;23851;-75
2021/11/27 10:05:28;;;;;;;;;;;;;;;2.19;77.90;98430.05;108700;1279;22134;-75
2021/11/27 10:08:00;;;;;;;;;;;;;;;2.08;77.60;98446.23;108659;1275;23759;-74
2021/11/27 10:10:29;;;;;;;;;;;;;;;1.98;77.67;98449.98;108702;1278;22922;-74
2021/11/27 10:12:58;;;;;;;;;;;;;;;1.98;77.92;98453.84;108405;1284;22447;-74
2021/11/27 10:15:28;;;;;;;;;;;;;;;1.93;77.76;98453.41;108371;1284;21966;-77
2021/11/27 10:18:18;;;;;;;;;;;;;;;1.81;77.49;98454.98;108433;1283;21993;-74
2021/11/27 10:21:08;;;;;;;;;;;;;;;1.85;78.13;98454.95;108388;1283;21980;-75
2021/11/27 10:23:38;;;;;;;;;;;;;;;1.95;78.34;98452.72;108404;1284;23795;-74
2021/11/27 10:26:10;;;;;;;;;;;;;;;1.99;78.10;98458.93;108397;1283;22112;-75
2021/11/27 10:28:40;;;;;;;;;;;;;;;2.03;78.34;98466.16;108467;1278;22055;-76
2021/11/27 10:31:09;;;;;;;;;;;;;;;2.11;78.50;98466.02;108532;1278;23566;-75
2021/11/27 10:33:38;;;;;;;;;;;;;;;2.17;78.46;98464.11;108544;1282;22990;-75
2021/11/27 10:36:10;;;;;;;;;;;;;;;2.18;78.08;98463.04;108418;1282;23819;-75
2021/11/27 10:38:47;;;;;;;;;;;;;;;2.11;77.88;98461.65;108211;1285;22664;-75
2021/11/27 10:41:18;;;;;;;;;;;;;;;2.06;77.89;98464.41;108131;1285;22373;-75
2021/11/27 10:44:07;;;;;;;;;;;;;;;2.07;78.07;98465.18;108254;1285;22032;-75
2021/11/27 10:46:46;;;;;;;;;;;;;;;2.07;77.95;98461.39;108137;1286;23669;-75
2021/11/27 10:50:06;;;;;;;;;;;;;;;2.01;77.83;98458.41;108318;1286;22098;-74
2021/11/27 10:52:39;;;;;;;;;;;;;;;1.99;77.88;98462.35;108396;1283;22889;-75
2021/11/27 10:55:24;;;;;;;;;;;;;;;1.92;77.62;98460.52;108042;1289;23166;-74
2021/11/27 10:58:02;;;;;;;;;;;;;;;1.87;77.55;98459.06;108138;1289;23730;-75
2021/11/27 11:00:38;;;;;;;;;;;;;;;1.82;77.54;98460.67;108056;1288;23035;-76
2021/11/27 11:03:35;;;;;;;;;;;;;;;1.69;77.32;98460.11;108299;1283;23017;-76
2021/11/27 11:06:44;;;;;;;;;;;;;;;1.61;77.97;98465.58;108377;1280;21988;-76
2021/11/27 11:09:15;;;;;;;;;;;;;;;1.61;78.08;98466.95;107951;1288;23091;-75
2021/11/27 11:11:46;;;;;;;;;;;;;;;1.57;78.10;98460.83;108034;1287;21981;-76
2021/11/27 11:14:28;;;;;;;;;;;;;;;1.57;78.30;98462.40;108270;1283;23125;-76
2021/11/27 11:17:06;;;;;;;;;;;;;;;1.60;78.49;98455.52;108437;1281;22085;-75
2021/11/27 11:19:37;;;;;;;;;;;;;;;1.66;78.83;98458.61;108178;1287;22745;-74
2021/11/27 11:22:14;;;;;;;;;;;;;;;1.75;78.89;98452.39;107954;1292;22579;-77
2021/11/27 11:24:45;;;;;;;;;;;;;;;1.83;78.96;98453.39;108072;1289;23019;-75
2021/11/27 11:27:32;;;;;;;;;;;;;;;1.89;78.82;98454.19;108048;1288;21963;-76
2021/11/27 11:30:17;;;;;;;;;;;;;;;;;;;;;
2021/11/27 11:32:53;;;;;;;;;;;;;;;1.94;78.80;98464.54;107700;1294;24613;-75
2021/11/27 11:35:31;;;;;;;;;;;;;;;1.97;78.73;98465.40;107861;1290;23678;-76
2021/11/27 11:38:15;;;;;;;;;;;;;;;1.99;78.67;98461.66;107859;1288;21990;-76
2021/11/27 11:40:55;;;;;;;;;;;;;;;2.09;78.90;98460.33;108077;1288;23021;-76
2021/11/27 11:43:27;;;;;;;;;;;;;;;2.10;78.44;98466.78;108206;1288;22122;-76
2021/11/27 11:46:25;;;;;;;;;;;;;;;2.00;77.82;98465.73;108142;1285;21982;-76
2021/11/27 11:49:14;;;;;;;;;;;;;;;1.98;78.15;98461.46;108401;1282;21974;-76
2021/11/27 11:52:30;;;;;;;;;;;;;;;2.06;78.50;98468.81;108690;1278;22388;-75
2021/11/27 11:55:04;;;;;;;;;;;;;;;2.06;78.00;98475.20;108635;1279;23358;-75
2021/11/27 11:57:47;;;;;;;;;;;;;;;2.04;78.11;98475.09;108404;1282;22003;-75
2021/11/27 12:00:37;;;;;;;;;;;;;;;2.08;78.23;98478.68;108230;1286;22148;-76
2021/11/27 12:03:14;;;;;;;;;;;;;;;2.08;78.14;98470.61;108191;1281;23608;-75
2021/11/27 12:06:02;;;;;;;;;;;;;;;2.13;78.45;98468.92;108230;1285;24904;-74
2021/11/27 12:08:49;;;;;;;;;;;;;;;2.25;78.71;98466.83;108342;1281;22224;-76
2021/11/27 12:11:43;;;;;;;;;;;;;;;2.30;78.27;98466.43;108363;1285;21977;-77
2021/11/27 12:14:20;;;;;;;;;;;;;;;2.32;78.24;98468.08;108510;1278;22275;-77
2021/11/27 12:17:14;;;;;;;;;;;;;;;2.31;77.88;98470.61;108405;1283;23601;-77
2021/11/27 12:19:53;;;;;;;;;;;;;;;2.24;77.67;98470.18;108422;1283;21988;-75
2021/11/27 12:22:22;;;;;;;;;;;;;;;2.16;77.63;98471.17;108465;1282;23051;-75
2021/11/27 12:25:13;;;;;;;;;;;;;;;2.12;77.74;98468.46;108730;1277;22756;-76
2021/11/27 12:28:10;;;;;;;;;;;;;;;2.19;78.10;98463.44;108814;1277;21970;-76
2021/11/27 12:30:45;;;;;;;;;;;;;;;2.32;78.42;98461.66;108848;1277;21972;-76
2021/11/27 12:33:48;;;;;;;;;;;;;;;2.44;78.65;98466.35;108859;1277;23588;-75
2021/11/27 12:36:24;;;;;;;;;;;;;;;2.58;78.71;98471.98;108880;1276;21968;-76
2021/11/27 12:39:31;;;;;;;;;;;;;;;2.62;78.23;98475.95;108845;1277;21983;-78
2021/11/27 12:42:04;;;;;;;;;;;;;;;2.69;78.10;98477.13;108463;1283;22902;-76
2021/11/27 12:44:49;;;;;;;;;;;;;;;2.73;78.00;98478.03;108403;1283;21971;-75
2021/11/27 12:47:26;;;;;;;;;;;;;;;2.67;77.08;98479.89;108429;1283;22028;-76
2021/11/27 12:49:58;;;;;;;;;;;;;;;2.64;77.23;98476.44;108257;1285;21978;-75
2021/11/27 12:52:32;;;;;;;;;;;;;;;2.57;76.97;98476.40;108432;1283;21983;-76
2021/11/27 12:55:07;;;;;;;;;;;;;;;2.52;77.10;98466.55;108405;1283;21979;-76
2021/11/27 12:58:05;;;;;;;;;;;;;;;2.56;77.53;98468.15;108249;1285;22004;-75
2021/11/27 13:00:38;;;;;;;;;;;;;;;2.59;77.36;98467.86;108449;1282;22873;-76
2021/11/27 13:03:30;;;;;;;;;;;;;;;;;;;;;
2021/11/27 13:06:35;;;;;;;;;;;;;;;2.58;76.98;98463.60;108580;1277;21956;-75
2021/11/27 13:09:12;;;;;;;;;;;;;;;2.53;76.87;98460.17;108988;1275;22024;-76
2021/11/27 13:11:59;;;;;;;;;;;;;;;2.49;76.96;98459.03;109082;1274;23043;-75
2021/11/27 13:14:39;;;;;;;;;;;;;;;2.51;76.94;98462.88;108489;1282;22001;-75
2021/11/27 13:17:24;;;;;;;;;;;;;;;;;;;;;
2021/11/27 13:19:58;;;;;;;;;;;;;;;2.39;76.70;98465.51;108209;1286;23866;-75
2021/11/27 13:22:35;;;;;;;;;;;;;;;2.36;76.80;98462.14;108243;1286;22211;-75
2021/11/27 13:25:39;;;;;;;;;;;;;;;2.38;76.88;98460.59;108329;1288;22973;-77
2021/11/27 13:28:39;;;;;;;;;;;;;;;2.29;76.29;98456.67;107663;1293;22156;-75
2021/11/27 13:31:38;;;;;;;;;;;;;;;2.19;76.40;98455.85;107304;1299;23105;-76
2021/11/27 13:34:22;;;;;;;;;;;;;;;2.15;76.63;98453.06;107676;1294;23778;-76